Time;durP1;ratioP1;P1;durP2;ratioP2;P2;SDS_P1;SDS_P2;PMS_P1;PMS_P2;Temp;Humidity;BMP_temperature;BMP_pressure;BME280_temperature;BME280_humidity;BME280_pressure;Samples;Min_cycle;Max_cycle;Signal;HPM_P1;HPM_P2
2023/11/24 00:01:18;;;;;;;18.80;12.10;;;;;;;9.38;63.95;99232.24;108108;1286;21994;-61
2023/11/24 00:03:43;;;;;;;19.80;13.50;;;;;;;9.36;63.97;99222.13;108099;1286;22030;-62
2023/11/24 00:06:11;;;;;;;18.30;12.10;;;;;;;9.34;64.04;99213.26;108097;1286;22023;-61
2023/11/24 00:08:37;;;;;;;19.20;12.30;;;;;;;9.34;64.17;99203.95;108146;1282;21994;-61
2023/11/24 00:11:03;;;;;;;18.20;12.10;;;;;;;9.35;64.08;99202.56;108096;1286;21988;-61
2023/11/24 00:13:29;;;;;;;18.90;12.40;;;;;;;9.33;64.01;99205.39;108105;1286;21992;-62
2023/11/24 00:15:55;;;;;;;19.10;11.80;;;;;;;9.31;64.04;99209.12;108072;1286;21996;-62
2023/11/24 00:18:21;;;;;;;17.80;11.80;;;;;;;9.30;64.10;99209.84;108128;1285;21994;-62
2023/11/24 00:20:47;;;;;;;18.90;11.70;;;;;;;9.30;64.02;99207.23;108082;1274;21990;-62
2023/11/24 00:23:13;;;;;;;19.60;13.00;;;;;;;9.30;64.16;99213.52;108285;1286;23054;-62
2023/11/24 00:25:39;;;;;;;18.70;12.20;;;;;;;9.29;64.18;99207.77;108148;1274;21994;-62
2023/11/24 00:28:04;;;;;;;18.30;12.10;;;;;;;9.29;64.14;99203.75;108108;1281;21991;-63
2023/11/24 00:30:32;;;;;;;18.40;12.50;;;;;;;9.29;64.11;99195.52;108212;1282;21982;-61
2023/11/24 00:32:58;;;;;;;18.80;14.00;;;;;;;9.28;64.08;99185.91;108119;1285;22009;-62
2023/11/24 00:35:23;;;;;;;19.60;12.90;;;;;;;9.26;64.06;99184.07;108122;1281;22003;-61
2023/11/24 00:37:49;;;;;;;20.70;13.50;;;;;;;9.22;64.04;99176.27;108089;1285;21987;-62
2023/11/24 00:40:18;;;;;;;17.50;12.40;;;;;;;9.18;64.24;99172.54;108137;1285;21993;-61
2023/11/24 00:42:46;;;;;;;17.30;11.40;;;;;;;9.16;64.18;99175.04;108236;1281;21976;-62
2023/11/24 00:45:13;;;;;;;17.30;11.20;;;;;;;9.14;64.34;99163.19;108129;1283;22476;-61
2023/11/24 00:47:39;;;;;;;19.20;11.50;;;;;;;9.14;64.25;99163.34;108101;1284;21989;-61
2023/11/24 00:50:05;;;;;;;21.10;14.40;;;;;;;9.15;64.45;99163.17;108137;1286;21986;-62
2023/11/24 00:52:31;;;;;;;24.50;15.30;;;;;;;9.13;64.35;99153.60;108230;1286;23660;-62
2023/11/24 00:54:57;;;;;;;20.00;14.50;;;;;;;9.09;64.51;99152.45;108136;1282;21992;-61
2023/11/24 00:57:23;;;;;;;18.70;13.40;;;;;;;9.05;64.61;99142.60;108241;1280;21981;-61
2023/11/24 00:59:50;;;;;;;20.80;13.30;;;;;;;9.03;64.49;99135.81;108248;1285;22015;-62
2023/11/24 01:02:16;;;;;;;19.40;12.40;;;;;;;9.02;64.51;99131.99;108108;1285;21999;-61
2023/11/24 01:04:42;;;;;;;19.00;12.50;;;;;;;9.01;64.77;99130.27;108115;1285;21993;-62
2023/11/24 01:07:07;;;;;;;21.80;13.30;;;;;;;9.01;64.97;99116.26;108170;1286;21990;-61
2023/11/24 01:09:33;;;;;;;19.80;12.50;;;;;;;9.02;64.86;99117.64;108154;1274;22026;-60
2023/11/24 01:11:59;;;;;;;18.20;12.80;;;;;;;9.02;64.75;99115.17;108202;1286;21984;-60
2023/11/24 01:14:24;;;;;;;18.60;12.50;;;;;;;9.01;64.94;99110.48;108268;1280;21992;-60
2023/11/24 01:16:50;;;;;;;21.60;14.10;;;;;;;8.98;64.74;99109.36;108152;1285;21993;-63
2023/11/24 01:19:16;;;;;;;19.60;13.30;;;;;;;8.96;64.87;99111.34;108139;1279;21996;-59
2023/11/24 01:21:41;;;;;;;23.20;14.00;;;;;;;8.92;64.81;99108.45;108142;1283;21986;-60
2023/11/24 01:24:07;;;;;;;20.70;13.90;;;;;;;8.89;64.80;99100.65;108274;1286;21995;-61
2023/11/24 01:26:33;;;;;;;20.90;13.70;;;;;;;8.85;65.05;99095.85;108142;1278;21999;-61
2023/11/24 01:29:02;;;;;;;20.00;13.50;;;;;;;8.83;64.91;99093.12;108122;1280;21987;-61
2023/11/24 01:31:30;;;;;;;23.60;13.60;;;;;;;8.79;64.96;99089.54;108175;1285;22059;-60
2023/11/24 01:33:56;;;;;;;19.70;14.30;;;;;;;8.75;64.96;99086.14;108155;1285;21992;-60
2023/11/24 01:36:21;;;;;;;21.40;13.80;;;;;;;8.72;64.77;99076.60;108180;1285;21982;-61
2023/11/24 01:38:47;;;;;;;21.90;14.90;;;;;;;8.70;64.59;99066.16;108134;1280;21950;-60
2023/11/24 01:41:13;;;;;;;22.30;16.30;;;;;;;8.68;64.77;99062.02;108132;1279;22001;-62
2023/11/24 01:43:38;;;;;;;21.30;14.60;;;;;;;8.65;64.81;99059.48;108152;1283;21998;-62
2023/11/24 01:46:05;;;;;;;19.00;13.00;;;;;;;8.61;64.72;99058.70;108093;1280;22058;-61
2023/11/24 01:48:31;;;;;;;19.20;13.30;;;;;;;8.58;64.68;99055.27;108123;1283;21988;-61
2023/11/24 01:50:56;;;;;;;19.40;13.30;;;;;;;8.55;65.03;99052.73;108130;1280;21988;-62
2023/11/24 01:53:22;;;;;;;18.70;12.40;;;;;;;8.52;64.98;99049.66;108199;1286;21991;-61
2023/11/24 01:55:47;;;;;;;19.80;12.60;;;;;;;8.50;65.00;99046.56;108190;1276;21985;-62
2023/11/24 01:58:14;;;;;;;20.50;13.70;;;;;;;8.50;64.86;99041.65;108245;1286;21983;-60
2023/11/24 02:00:39;;;;;;;19.70;14.40;;;;;;;8.47;64.77;99033.83;108214;1279;21987;-60
2023/11/24 02:03:05;;;;;;;21.90;14.70;;;;;;;8.46;64.82;99020.92;108138;1284;21994;-62
2023/11/24 02:05:31;;;;;;;24.10;15.00;;;;;;;8.44;64.72;99018.00;108195;1285;21988;-60
2023/11/24 02:07:57;;;;;;;19.10;13.30;;;;;;;8.41;64.71;99005.33;108124;1273;22004;-60
2023/11/24 02:10:23;;;;;;;21.80;13.00;;;;;;;8.35;64.94;99004.59;108172;1277;21979;-60
2023/11/24 02:12:50;;;;;;;19.40;11.60;;;;;;;8.30;64.76;99000.01;108260;1284;21991;-61
2023/11/24 02:15:15;;;;;;;19.20;11.60;;;;;;;8.27;64.76;98989.92;108268;1285;21994;-60
2023/11/24 02:17:41;;;;;;;18.70;11.70;;;;;;;8.23;65.08;98993.36;108257;1285;22024;-60
2023/11/24 02:20:10;;;;;;;17.20;10.90;;;;;;;8.22;65.31;98993.55;108147;1286;22024;-61
2023/11/24 02:22:41;;;;;;;17.40;11.30;;;;;;;8.23;65.22;98992.31;108101;1279;21994;-62
2023/11/24 02:25:08;;;;;;;23.20;14.10;;;;;;;8.26;65.15;98998.88;108150;1285;21986;-60
2023/11/24 02:27:33;;;;;;;25.90;14.50;;;;;;;8.28;65.38;99000.94;108268;1280;23257;-61
2023/11/24 02:29:59;;;;;;;23.90;14.10;;;;;;;8.29;65.35;99002.30;108241;1284;21990;-61
2023/11/24 02:32:24;;;;;;;22.90;14.20;;;;;;;8.30;65.25;98993.88;108122;1277;21993;-62
2023/11/24 02:34:50;;;;;;;18.20;12.40;;;;;;;8.32;65.01;98985.80;108137;1275;21998;-60
2023/11/24 02:37:15;;;;;;;20.10;13.00;;;;;;;8.32;65.08;98975.14;108131;1281;22048;-62
2023/11/24 02:39:41;;;;;;;20.10;12.90;;;;;;;8.30;65.22;98969.94;107516;1285;1003131;-61
2023/11/24 02:42:07;;;;;;;19.40;13.20;;;;;;;8.30;65.04;98960.33;108199;1285;21985;-62
2023/11/24 02:44:32;;;;;;;19.70;12.20;;;;;;;8.28;65.35;98951.64;108267;1278;21984;-61
2023/11/24 02:46:59;;;;;;;17.40;11.70;;;;;;;8.26;65.40;98952.55;108268;1271;22039;-63
2023/11/24 02:49:24;;;;;;;22.80;13.40;;;;;;;8.26;65.34;98952.21;108269;1285;22006;-61
2023/11/24 02:51:50;;;;;;;19.10;12.70;;;;;;;8.26;65.44;98951.67;108215;1285;21997;-62
2023/11/24 02:54:15;;;;;;;19.60;12.70;;;;;;;8.29;65.52;98944.64;108187;1282;21990;-61
2023/11/24 02:56:41;;;;;;;23.00;13.00;;;;;;;8.29;65.46;98942.36;108221;1283;21988;-60
2023/11/24 02:59:07;;;;;;;19.00;12.90;;;;;;;8.29;65.32;98941.48;108207;1285;21989;-62
2023/11/24 03:01:35;;;;;;;20.30;12.30;;;;;;;8.27;65.44;98941.35;108222;1284;21988;-61
2023/11/24 03:04:02;;;;;;;17.80;11.90;;;;;;;8.26;65.45;98939.64;107484;1285;1002658;-60
2023/11/24 03:06:28;;;;;;;19.00;12.20;;;;;;;8.24;65.42;98933.91;108220;1284;22026;-62
2023/11/24 03:08:54;;;;;;;18.90;12.80;;;;;;;8.24;65.21;98923.44;108243;1285;21996;-62
2023/11/24 03:11:19;;;;;;;20.60;12.60;;;;;;;8.23;65.04;98918.23;108203;1276;21982;-62
2023/11/24 03:13:45;;;;;;;20.20;12.70;;;;;;;8.21;64.95;98911.45;108250;1284;21995;-61
2023/11/24 03:16:10;;;;;;;16.70;11.90;;;;;;;8.17;65.07;98910.52;108290;1278;22026;-60
2023/11/24 03:18:36;;;;;;;21.00;13.40;;;;;;;8.12;65.05;98902.95;108223;1273;21989;-62
2023/11/24 03:21:02;;;;;;;20.30;13.00;;;;;;;8.09;64.97;98903.05;108248;1285;21953;-63
2023/11/24 03:23:27;;;;;;;20.20;12.60;;;;;;;8.05;64.87;98897.02;108262;1285;21984;-61
2023/11/24 03:25:53;;;;;;;20.10;13.70;;;;;;;8.02;64.76;98896.20;108265;1285;22459;-62
2023/11/24 03:28:19;;;;;;;20.20;12.30;;;;;;;7.98;64.69;98892.46;108257;1278;21989;-62
2023/11/24 03:30:46;;;;;;;18.70;13.00;;;;;;;7.93;64.72;98882.46;108196;1278;21995;-60
2023/11/24 03:33:14;;;;;;;21.50;13.80;;;;;;;7.87;64.70;98877.91;108235;1278;21992;-63
2023/11/24 03:35:39;;;;;;;18.80;12.20;;;;;;;7.82;65.02;98869.13;108340;1283;21992;-63
2023/11/24 03:38:05;;;;;;;18.80;11.80;;;;;;;7.75;65.04;98865.96;108178;1285;21996;-63
2023/11/24 03:40:30;;;;;;;20.90;12.90;;;;;;;7.69;65.07;98865.95;108157;1285;22021;-61
2023/11/24 03:42:56;;;;;;;19.30;12.90;;;;;;;7.63;65.41;98861.05;108177;1284;22024;-60
2023/11/24 03:45:22;;;;;;;19.90;12.60;;;;;;;7.59;65.38;98854.14;108232;1273;21994;-62
2023/11/24 03:47:48;;;;;;;19.90;12.90;;;;;;;7.56;65.32;98854.56;108187;1284;21987;-60
2023/11/24 03:50:14;;;;;;;18.30;11.90;;;;;;;7.53;65.33;98850.44;108160;1284;21987;-63
2023/11/24 03:52:39;;;;;;;20.20;12.40;;;;;;;7.51;65.27;98850.16;108170;1285;22001;-62
2023/11/24 03:55:07;;;;;;;18.30;11.50;;;;;;;7.49;65.09;98852.84;108132;1278;21973;-62
2023/11/24 03:57:33;;;;;;;18.60;12.10;;;;;;;7.48;65.04;98845.88;108303;1279;23712;-60
2023/11/24 03:59:58;;;;;;;18.90;11.70;;;;;;;7.44;65.42;98840.91;108139;1275;21988;-62
2023/11/24 04:02:24;;;;;;;16.40;11.60;;;;;;;7.41;65.71;98840.62;108100;1273;21989;-62
2023/11/24 04:04:50;;;;;;;16.70;10.80;;;;;;;7.43;65.61;98840.75;108082;1285;21986;-63
2023/11/24 04:07:16;;;;;;;31.70;17.40;;;;;;;7.45;65.82;98835.11;108292;1285;21980;-63
2023/11/24 04:09:42;;;;;;;33.60;21.40;;;;;;;7.48;66.10;98836.44;108240;1274;21989;-62
2023/11/24 04:12:07;;;;;;;23.70;14.40;;;;;;;7.53;66.07;98838.24;108154;1284;21986;-61
2023/11/24 04:14:33;;;;;;;23.20;14.40;;;;;;;7.56;66.41;98833.27;108169;1280;21996;-60
2023/11/24 04:16:59;;;;;;;18.70;12.60;;;;;;;7.62;66.37;98828.95;108127;1281;23512;-60
2023/11/24 04:19:24;;;;;;;18.50;12.10;;;;;;;7.67;66.47;98830.92;108129;1281;21987;-60
2023/11/24 04:21:50;;;;;;;18.70;12.00;;;;;;;7.71;66.57;98840.23;108124;1281;21992;-63
2023/11/24 04:24:15;;;;;;;18.00;11.90;;;;;;;7.76;66.46;98846.91;108118;1281;22090;-63
2023/11/24 04:26:41;;;;;;;16.80;10.60;;;;;;;7.85;66.22;98844.60;108124;1280;22024;-63
2023/11/24 04:29:06;;;;;;;17.40;11.50;;;;;;;7.91;66.02;98838.17;108127;1284;21991;-61
2023/11/24 04:31:32;;;;;;;18.70;11.50;;;;;;;7.90;66.33;98836.45;108259;1285;21992;-63
2023/11/24 04:33:58;;;;;;;18.00;11.60;;;;;;;7.92;66.02;98839.36;108229;1285;21986;-61
2023/11/24 04:36:24;;;;;;;17.10;11.60;;;;;;;7.96;65.81;98832.95;108214;1273;21989;-62
2023/11/24 04:38:49;;;;;;;16.80;10.90;;;;;;;7.97;65.80;98827.52;108227;1284;24410;-63
2023/11/24 04:41:15;;;;;;;22.90;12.20;;;;;;;7.96;65.70;98825.63;108280;1285;22449;-60
2023/11/24 04:43:41;;;;;;;19.50;11.40;;;;;;;7.93;65.87;98823.43;108201;1277;21987;-62
2023/11/24 04:46:07;;;;;;;16.90;11.40;;;;;;;7.93;65.92;98822.04;108164;1285;22005;-60
2023/11/24 04:48:35;;;;;;;15.30;9.90;;;;;;;7.94;65.78;98821.83;108250;1284;21986;-60
2023/11/24 04:51:00;;;;;;;17.30;10.30;;;;;;;7.99;65.51;98821.36;108308;1285;21980;-62
2023/11/24 04:53:26;;;;;;;13.40;8.90;;;;;;;8.01;65.61;98815.70;108272;1274;21984;-62
2023/11/24 04:55:52;;;;;;;17.90;9.80;;;;;;;8.03;65.58;98816.19;108343;1284;21988;-63
2023/11/24 04:58:17;;;;;;;15.20;9.80;;;;;;;8.06;65.68;98822.57;108302;1277;21987;-60
2023/11/24 05:00:43;;;;;;;16.60;10.90;;;;;;;8.09;65.64;98820.58;108202;1285;21989;-62
2023/11/24 05:03:08;;;;;;;13.40;8.60;;;;;;;8.12;65.64;98819.08;108209;1284;22448;-61
2023/11/24 05:05:34;;;;;;;12.30;9.00;;;;;;;8.15;65.52;98822.14;108321;1284;21986;-62
2023/11/24 05:08:00;;;;;;;15.50;9.60;;;;;;;8.20;65.50;98825.15;108193;1280;21987;-61
2023/11/24 05:10:25;;;;;;;15.90;9.30;;;;;;;8.26;65.29;98825.52;108201;1284;21986;-62
2023/11/24 05:12:51;;;;;;;13.00;8.40;;;;;;;8.31;65.24;98824.69;108273;1273;21977;-60
2023/11/24 05:15:17;;;;;;;14.20;8.40;;;;;;;8.36;65.43;98816.34;108301;1284;22011;-60
2023/11/24 05:17:42;;;;;;;12.70;8.30;;;;;;;8.43;65.42;98816.11;108242;1284;21985;-60
2023/11/24 05:20:12;;;;;;;14.00;8.60;;;;;;;8.47;65.28;98818.98;108156;1273;21989;-61
2023/11/24 05:22:40;;;;;;;15.40;8.20;;;;;;;8.52;65.16;98821.35;108217;1283;21990;-62
2023/11/24 05:25:07;;;;;;;12.70;7.00;;;;;;;8.55;65.00;98824.23;108202;1274;21993;-62
2023/11/24 05:27:33;;;;;;;11.00;7.80;;;;;;;8.58;64.95;98827.11;108205;1285;22255;-60
2023/11/24 05:29:59;;;;;;;11.30;8.70;;;;;;;8.63;64.84;98823.80;108200;1284;22024;-62
2023/11/24 05:32:24;;;;;;;14.70;8.50;;;;;;;8.66;64.77;98816.91;108211;1284;21987;-61
2023/11/24 05:34:53;;;;;;;13.10;9.10;;;;;;;8.72;64.69;98810.80;108314;1284;21989;-60
2023/11/24 05:37:19;;;;;;;15.70;9.10;;;;;;;8.77;64.63;98805.90;108274;1284;21982;-60
2023/11/24 05:39:45;;;;;;;16.90;11.40;;;;;;;8.82;64.55;98805.94;108269;1284;21989;-60
2023/11/24 05:42:10;;;;;;;14.10;9.80;;;;;;;8.86;64.44;98804.06;108188;1284;21956;-61
2023/11/24 05:44:36;;;;;;;15.40;10.70;;;;;;;8.91;64.45;98809.52;108196;1277;21983;-60
2023/11/24 05:47:04;;;;;;;18.80;10.90;;;;;;;8.95;64.31;98809.05;106676;1284;1003123;-62
2023/11/24 05:49:33;;;;;;;21.30;14.50;;;;;;;8.99;64.15;98805.42;108265;1284;21977;-61
2023/11/24 05:51:58;;;;;;;14.00;9.70;;;;;;;9.02;63.93;98801.99;108178;1278;21995;-61
2023/11/24 05:54:25;;;;;;;12.10;8.60;;;;;;;9.07;63.99;98800.95;108213;1284;21988;-62
2023/11/24 05:56:51;;;;;;;10.00;6.60;;;;;;;9.11;63.98;98795.95;108227;1284;21988;-62
2023/11/24 05:59:17;;;;;;;10.50;6.10;;;;;;;9.14;63.78;98794.29;108167;1285;21993;-62
2023/11/24 06:01:43;;;;;;;9.20;5.60;;;;;;;9.18;63.78;98791.00;108274;1285;21983;-63
2023/11/24 06:04:09;;;;;;;9.50;5.60;;;;;;;9.21;63.59;98789.17;108196;1284;21986;-63
2023/11/24 06:06:35;;;;;;;13.60;6.00;;;;;;;9.26;63.68;98793.56;108202;1285;21990;-61
2023/11/24 06:09:02;;;;;;;9.50;6.30;;;;;;;9.30;63.68;98797.45;108236;1278;21992;-63
2023/11/24 06:11:28;;;;;;;8.90;6.00;;;;;;;9.33;63.47;98792.10;108206;1284;21994;-61
2023/11/24 06:13:54;;;;;;;9.50;5.50;;;;;;;9.36;63.48;98788.50;108245;1284;21997;-59
2023/11/24 06:16:21;;;;;;;9.20;5.30;;;;;;;9.39;63.38;98784.21;108201;1284;21989;-59
2023/11/24 06:18:47;;;;;;;7.60;4.80;;;;;;;9.43;63.29;98784.27;108308;1285;21999;-62
2023/11/24 06:21:13;;;;;;;8.60;5.60;;;;;;;9.46;63.23;98781.71;108126;1285;21986;-62
2023/11/24 06:23:39;;;;;;;9.60;5.50;;;;;;;9.47;63.19;98780.95;108311;1280;21998;-62
2023/11/24 06:26:07;;;;;;;9.80;5.20;;;;;;;9.52;63.20;98782.89;108194;1283;21991;-60
2023/11/24 06:28:33;;;;;;;8.50;4.70;;;;;;;9.57;63.01;98785.19;108142;1285;24480;-62
2023/11/24 06:31:00;;;;;;;8.20;4.80;;;;;;;9.61;62.82;98780.67;108061;1285;21986;-60
2023/11/24 06:33:26;;;;;;;7.20;4.80;;;;;;;9.63;62.31;98774.83;107400;1285;1002751;-61
2023/11/24 06:35:53;;;;;;;6.80;4.60;;;;;;;9.69;62.63;98769.02;108154;1279;22470;-61
2023/11/24 06:38:18;;;;;;;8.00;4.60;;;;;;;9.71;62.46;98767.72;108152;1284;22055;-60
2023/11/24 06:40:44;;;;;;;7.80;5.10;;;;;;;9.75;62.34;98771.61;108253;1277;22000;-61
2023/11/24 06:43:10;;;;;;;8.10;4.60;;;;;;;9.78;62.25;98769.24;108241;1277;21983;-62
2023/11/24 06:45:35;;;;;;;8.30;4.70;;;;;;;9.82;62.43;98765.42;108252;1281;21997;-60
2023/11/24 06:48:01;;;;;;;9.20;5.00;;;;;;;9.87;62.59;98766.81;108278;1284;21983;-60
2023/11/24 06:50:26;;;;;;;6.80;4.50;;;;;;;9.90;62.51;98764.08;108256;1284;22037;-62
2023/11/24 06:52:52;;;;;;;8.50;4.90;;;;;;;9.94;62.45;98765.35;108259;1285;21987;-60
2023/11/24 06:55:18;;;;;;;8.80;5.80;;;;;;;9.95;62.38;98767.05;108261;1285;21985;-61
2023/11/24 06:57:44;;;;;;;16.80;9.90;;;;;;;9.98;62.62;98766.45;108180;1284;21996;-62
2023/11/24 07:00:16;;;;;;;12.00;6.60;;;;;;;9.99;62.50;98766.22;108166;1283;22035;-61
2023/11/24 07:02:41;;;;;;;13.70;9.50;;;;;;;10.03;62.58;98767.49;108183;1284;21989;-60
2023/11/24 07:05:09;;;;;;;10.00;6.60;;;;;;;10.05;62.48;98776.71;108162;1283;22466;-60
2023/11/24 07:07:34;;;;;;;14.10;9.70;;;;;;;10.05;62.31;98776.53;108366;1285;23715;-61
2023/11/24 07:10:00;;;;;;;8.30;5.90;;;;;;;10.07;62.21;98776.14;108251;1274;22160;-59
2023/11/24 07:12:25;;;;;;;8.20;4.90;;;;;;;10.11;62.42;98781.92;110021;1285;22363;-62
2023/11/24 07:14:51;;;;;;;8.10;5.10;;;;;;;10.14;62.27;98781.82;110121;1285;21923;-63
2023/11/24 07:17:17;;;;;;;7.70;5.40;;;;;;;10.20;62.41;98771.27;110138;1285;21942;-62
2023/11/24 07:19:43;;;;;;;8.80;6.00;;;;;;;10.25;62.34;98767.23;108486;1284;23054;-59
2023/11/24 07:22:08;;;;;;;12.00;7.30;;;;;;;10.30;62.21;98761.10;108164;1280;21993;-61
2023/11/24 07:24:38;;;;;;;9.30;6.00;;;;;;;10.35;62.24;98761.61;108205;1284;21987;-61
2023/11/24 07:27:05;;;;;;;8.70;5.90;;;;;;;10.42;62.02;98764.19;108418;1279;22056;-61
2023/11/24 07:29:33;;;;;;;11.40;4.70;;;;;;;10.50;61.90;98761.95;108156;1274;21983;-59
2023/11/24 07:32:02;;;;;;;5.10;3.60;;;;;;;10.60;61.67;98756.12;108122;1274;21995;-60
2023/11/24 07:34:31;;;;;;;6.40;4.10;;;;;;;10.74;61.44;98745.08;108280;1284;21992;-61
2023/11/24 07:37:00;;;;;;;6.40;3.50;;;;;;;10.89;61.35;98738.52;108374;1280;21989;-62
2023/11/24 07:39:28;;;;;;;5.30;3.40;;;;;;;11.03;61.09;98742.35;108326;1273;23732;-62
2023/11/24 07:41:53;;;;;;;5.50;3.40;;;;;;;11.17;60.77;98741.98;108305;1274;21994;-62
2023/11/24 07:44:19;;;;;;;6.30;3.10;;;;;;;11.28;60.55;98744.84;108329;1285;22453;-62
2023/11/24 07:46:45;;;;;;;7.20;3.70;;;;;;;11.39;60.56;98745.29;108134;1277;23705;-61
2023/11/24 07:49:10;;;;;;;5.80;3.50;;;;;;;11.48;60.46;98741.05;108103;1285;22495;-60
2023/11/24 07:51:36;;;;;;;5.70;3.70;;;;;;;11.55;60.38;98739.16;108133;1285;22000;-61
2023/11/24 07:54:02;;;;;;;5.60;3.40;;;;;;;11.65;60.78;98734.53;108170;1285;21985;-60
2023/11/24 07:56:31;;;;;;;7.30;3.60;;;;;;;11.77;60.55;98726.83;108126;1277;21980;-62
2023/11/24 07:58:57;;;;;;;6.20;3.40;;;;;;;11.85;59.97;98723.67;108175;1284;21985;-61
2023/11/24 08:01:23;;;;;;;5.80;3.50;;;;;;;11.92;59.57;98730.71;108292;1273;22058;-61
2023/11/24 08:03:49;;;;;;;5.90;3.50;;;;;;;11.96;59.11;98728.27;108121;1284;21986;-61
2023/11/24 08:06:15;;;;;;;5.50;3.30;;;;;;;11.97;58.83;98721.35;108113;1274;21988;-63
2023/11/24 08:08:41;;;;;;;5.90;3.60;;;;;;;11.96;58.36;98722.09;108138;1285;22024;-63
2023/11/24 08:11:06;;;;;;;6.80;3.20;;;;;;;11.97;58.27;98722.09;108158;1285;21986;-61
2023/11/24 08:13:32;;;;;;;6.20;3.00;;;;;;;12.03;57.98;98720.45;108131;1279;21993;-62
2023/11/24 08:15:58;;;;;;;5.40;2.90;;;;;;;12.07;57.23;98722.55;108044;1285;21994;-62
2023/11/24 08:18:24;;;;;;;4.80;2.70;;;;;;;12.13;56.99;98724.73;108106;1285;22124;-61
2023/11/24 08:20:50;;;;;;;6.90;2.90;;;;;;;12.21;57.19;98722.09;108109;1285;22024;-60
2023/11/24 08:23:17;;;;;;;5.60;3.00;;;;;;;12.34;57.81;98721.18;108204;1285;21987;-61
2023/11/24 08:25:43;;;;;;;4.80;2.80;;;;;;;12.45;58.33;98722.91;108135;1284;22923;-60
2023/11/24 08:28:11;;;;;;;5.20;2.90;;;;;;;12.52;57.88;98725.08;108289;1277;22567;-62
2023/11/24 08:30:38;;;;;;;5.90;3.60;;;;;;;12.58;58.22;98723.04;108118;1284;21996;-60
2023/11/24 08:33:03;;;;;;;4.50;3.30;;;;;;;12.63;58.29;98725.77;108220;1284;22211;-61
2023/11/24 08:35:30;;;;;;;4.50;2.70;;;;;;;12.65;57.98;98726.05;108130;1279;21991;-62
2023/11/24 08:37:56;;;;;;;4.70;2.70;;;;;;;12.67;58.14;98720.34;108317;1274;21983;-62
2023/11/24 08:40:24;;;;;;;4.50;2.70;;;;;;;12.70;58.41;98719.48;108128;1271;21999;-63
2023/11/24 08:42:50;;;;;;;4.50;2.70;;;;;;;12.71;58.61;98716.08;108287;1285;21999;-62
2023/11/24 08:45:16;;;;;;;5.70;3.00;;;;;;;12.75;58.68;98707.46;108034;1285;23749;-62
2023/11/24 08:47:43;;;;;;;6.40;3.20;;;;;;;12.79;58.81;98703.90;108099;1285;22027;-61
2023/11/24 08:50:10;;;;;;;4.80;2.60;;;;;;;12.83;58.43;98700.21;108032;1285;22029;-63
2023/11/24 08:52:36;;;;;;;5.80;2.90;;;;;;;12.84;58.24;98695.59;108097;1274;23747;-63
2023/11/24 08:55:02;;;;;;;4.70;3.00;;;;;;;12.83;57.58;98694.07;108050;1285;22018;-63
2023/11/24 08:57:28;;;;;;;7.10;3.50;;;;;;;12.81;57.67;98690.13;108014;1285;21984;-63
2023/11/24 08:59:54;;;;;;;8.10;4.90;;;;;;;12.77;57.14;98695.95;108160;1280;21996;-63
2023/11/24 09:02:20;;;;;;;105.80;45.30;;;;;;;12.74;57.09;98693.41;108045;1283;22010;-63
2023/11/24 09:04:46;;;;;;;28.60;18.50;;;;;;;12.73;57.20;98687.86;108047;1274;21973;-61
2023/11/24 09:07:12;;;;;;;13.50;9.00;;;;;;;12.71;57.01;98681.25;108108;1277;22015;-61
2023/11/24 09:09:38;;;;;;;18.70;15.90;;;;;;;12.73;57.38;98679.92;108183;1285;23726;-63
2023/11/24 09:12:05;;;;;;;7.70;5.30;;;;;;;12.72;56.91;98672.94;108301;1285;21990;-62
2023/11/24 09:14:33;;;;;;;6.40;4.50;;;;;;;12.70;56.26;98668.63;108141;1274;23631;-62
2023/11/24 09:17:00;;;;;;;7.80;4.40;;;;;;;12.68;56.46;98663.26;108070;1285;22026;-61
2023/11/24 09:19:26;;;;;;;10.70;5.70;;;;;;;12.64;56.17;98657.64;108077;1280;21991;-61
2023/11/24 09:21:52;;;;;;;9.20;5.70;;;;;;;12.64;56.61;98656.40;108027;1283;21982;-61
2023/11/24 09:24:17;;;;;;;8.70;5.60;;;;;;;12.63;57.11;98655.20;107271;1285;1002293;-62
2023/11/24 09:26:44;;;;;;;15.10;8.90;;;;;;;12.55;56.86;98651.90;108127;1284;21983;-62
2023/11/24 09:29:10;;;;;;;9.20;5.20;;;;;;;12.53;57.00;98651.85;108277;1284;21992;-62
2023/11/24 09:31:37;;;;;;;61.30;33.00;;;;;;;12.51;57.22;98645.10;108241;1278;21997;-63
2023/11/24 09:34:02;;;;;;;43.00;22.30;;;;;;;12.47;57.08;98636.80;108081;1284;21984;-62
2023/11/24 09:36:28;;;;;;;14.20;9.40;;;;;;;12.48;57.42;98630.27;108196;1284;21996;-60
2023/11/24 09:38:54;;;;;;;9.10;5.40;;;;;;;12.49;57.48;98626.87;108208;1284;21985;-62
2023/11/24 09:41:19;;;;;;;8.20;5.30;;;;;;;12.46;56.79;98630.86;108197;1277;21992;-62
2023/11/24 09:43:45;;;;;;;13.90;11.00;;;;;;;12.39;56.58;98634.88;108198;1285;22043;-62
2023/11/24 09:46:11;;;;;;;9.00;5.60;;;;;;;12.32;57.11;98637.55;108023;1284;21986;-62
2023/11/24 09:48:45;;;;;;;8.50;5.30;;;;;;;12.31;57.34;98634.38;108265;1284;21984;-63
2023/11/24 09:51:11;;;;;;;19.30;11.80;;;;;;;12.25;57.20;98633.44;108172;1284;21989;-62
2023/11/24 09:53:37;;;;;;;7.20;4.40;;;;;;;12.18;57.01;98626.23;108152;1285;21956;-62
2023/11/24 09:56:04;;;;;;;8.70;5.00;;;;;;;12.08;56.98;98622.48;108203;1280;22244;-62
2023/11/24 09:58:32;;;;;;;7.30;4.60;;;;;;;12.01;57.02;98618.92;108224;1284;21983;-62
2023/11/24 10:01:13;;;;;;;7.80;5.20;;;;;;;11.99;57.55;98617.23;108169;1284;21985;-62
2023/11/24 10:03:38;;;;;;;10.10;5.30;;;;;;;11.96;57.69;98612.59;108168;1280;21992;-62
2023/11/24 10:06:10;;;;;;;8.40;4.70;;;;;;;11.93;58.07;98612.21;108192;1284;21993;-60
2023/11/24 10:08:36;;;;;;;8.10;5.30;;;;;;;11.88;58.25;98605.61;108240;1273;21986;-61
2023/11/24 10:11:31;;;;;;;8.80;5.40;;;;;;;11.93;58.54;98606.42;108233;1284;22457;-61
2023/11/24 10:13:57;;;;;;;10.30;5.10;;;;;;;11.91;58.67;98597.18;108263;1284;21982;-62
2023/11/24 10:16:23;;;;;;;7.30;4.70;;;;;;;11.97;58.89;98593.39;108258;1284;22043;-61
2023/11/24 10:18:49;;;;;;;7.10;4.40;;;;;;;11.99;58.96;98595.29;108192;1278;22014;-61
2023/11/24 10:21:15;;;;;;;9.80;4.90;;;;;;;11.97;58.62;98597.77;108198;1284;21992;-62
2023/11/24 10:23:41;;;;;;;8.10;4.80;;;;;;;12.01;58.65;98597.45;107998;1284;21990;-62
2023/11/24 10:26:15;;;;;;;8.00;4.90;;;;;;;12.02;58.50;98593.92;108180;1284;21992;-62
2023/11/24 10:28:44;;;;;;;8.00;4.80;;;;;;;12.05;58.55;98586.19;108219;1284;21992;-62
2023/11/24 10:31:12;;;;;;;7.50;4.50;;;;;;;12.09;58.59;98587.08;108252;1285;21987;-62
2023/11/24 10:33:39;;;;;;;9.00;4.40;;;;;;;12.09;58.18;98590.44;107434;1280;1002576;-62
2023/11/24 10:36:05;;;;;;;6.60;4.10;;;;;;;12.13;58.28;98590.23;107987;1285;22039;-61
2023/11/24 10:38:31;;;;;;;6.50;3.90;;;;;;;12.16;58.18;98586.05;108000;1285;21987;-61
2023/11/24 10:40:59;;;;;;;7.10;3.90;;;;;;;12.19;58.09;98582.38;107984;1285;22005;-61
2023/11/24 10:43:30;;;;;;;7.20;3.50;;;;;;;12.22;57.83;98578.56;108280;1285;22006;-62
2023/11/24 10:45:58;;;;;;;8.70;3.70;;;;;;;12.23;57.64;98580.30;108099;1285;22044;-61
2023/11/24 10:48:32;;;;;;;6.30;3.60;;;;;;;12.26;57.69;98573.10;108159;1285;21989;-61
2023/11/24 10:51:09;;;;;;;9.10;4.50;;;;;;;12.29;57.74;98565.02;108028;1284;23060;-61
2023/11/24 10:53:36;;;;;;;6.90;3.90;;;;;;;12.30;57.72;98559.01;108159;1280;21989;-61
2023/11/24 10:56:03;;;;;;;5.70;3.50;;;;;;;12.30;57.78;98555.15;107978;1285;21990;-61
2023/11/24 10:58:30;;;;;;;5.80;3.30;;;;;;;12.35;57.75;98548.20;108156;1285;22446;-61
2023/11/24 11:00:56;;;;;;;7.00;4.10;;;;;;;12.40;57.81;98545.69;108062;1277;21986;-62
2023/11/24 11:03:22;;;;;;;6.00;3.50;;;;;;;12.44;58.19;98548.49;108298;1284;21985;-61
2023/11/24 11:06:00;;;;;;;31.00;13.80;;;;;;;12.46;58.33;98549.97;108216;1280;21986;-61
2023/11/24 11:08:38;;;;;;;32.30;21.50;;;;;;;12.49;58.30;98549.81;108124;1285;21981;-61
2023/11/24 11:11:12;;;;;;;45.00;28.10;;;;;;;12.50;58.49;98547.83;107887;1275;195671;-61
2023/11/24 11:13:42;;;;;;;9.00;6.70;;;;;;;12.55;58.75;98540.59;108109;1285;23599;-61
2023/11/24 11:16:12;;;;;;;15.80;11.80;;;;;;;12.59;58.80;98537.70;108140;1283;22168;-61
2023/11/24 11:18:38;;;;;;;8.60;6.10;;;;;;;12.61;58.77;98536.20;108319;1277;21980;-61